Terminal Aerodrome Forecast
Issued by NWS Upton, NY

Home | Current Version | Previous Version | Text Only | Print | Product List | Glossary On
Versions: 1 2 3 4 5 6 7 8 9 10 11 12 13 14 15 16 17 18 19 20 21 22 23 24 25 26 27 28 29 30 31 32 33 34 35 36 37 38 39 40 41
219
FTUS41 KOKX 290557
TAFLGA
TAF
KLGA 290557Z 2906/3006 21007KT P6SM BKN200 OVC250
     FM290800 VRB05KT 6SM SHRA BR VCTS SCT015 BKN050CB
      TEMPO 2909/2912 4SM BR BKN015
     FM291200 20006KT 6SM BR FEW005 BKN015
      TEMPO 2912/2914 4SM BR BKN010
     FM291400 25010KT P6SM BKN150
     FM291600 27010G18KT P6SM BKN200
     FM292200 30013G24KT P6SM BKN250
     FM300000 33007KT P6SM BKN150
     FM300400 36006KT P6SM SCT250=

USA.gov is the U.S. government's official web portal to all federal, state and local government web resources and services.